createdAt,value
2018-12-05T00:01:27.699Z,20.85
2018-12-05T00:03:54.414Z,20.85
2018-12-05T00:06:21.061Z,20.85
2018-12-05T00:08:47.713Z,20.86
2018-12-05T00:11:14.363Z,20.88
2018-12-05T00:13:41.006Z,20.87
2018-12-05T00:16:07.729Z,20.87
2018-12-05T00:18:34.378Z,20.88
2018-12-05T00:21:01.158Z,20.87
2018-12-05T00:23:27.800Z,20.90
2018-12-05T00:25:54.531Z,20.88
2018-12-05T00:28:21.185Z,20.94
2018-12-05T00:30:47.888Z,20.92
2018-12-05T00:33:14.554Z,20.96
2018-12-05T00:35:41.218Z,20.96
2018-12-05T00:38:07.874Z,20.99
2018-12-05T00:40:34.531Z,20.96
2018-12-05T00:43:01.175Z,20.99
2018-12-05T00:45:27.873Z,20.98
2018-12-05T00:47:54.579Z,21.00
2018-12-05T00:50:21.287Z,21.01
2018-12-05T00:52:47.931Z,21.02
2018-12-05T00:55:14.594Z,21.05
2018-12-05T00:57:41.251Z,21.01
2018-12-05T01:00:07.922Z,21.04
2018-12-05T01:02:34.561Z,21.03
2018-12-05T01:05:01.245Z,21.05
2018-12-05T01:07:27.956Z,21.04
2018-12-05T01:09:54.692Z,21.06
2018-12-05T01:12:21.379Z,21.07
2018-12-05T01:14:48.030Z,21.08
2018-12-05T01:17:14.736Z,21.08
2018-12-05T01:19:41.379Z,21.13
2018-12-05T01:22:08.030Z,21.13
2018-12-05T01:24:34.769Z,21.15
2018-12-05T01:27:01.496Z,21.13
2018-12-05T01:29:28.136Z,21.16
2018-12-05T01:31:54.989Z,21.17
2018-12-05T01:34:21.665Z,21.19
2018-12-05T01:36:48.307Z,21.17
2018-12-05T01:39:15.004Z,21.22
2018-12-05T01:41:41.643Z,21.19
2018-12-05T01:44:08.341Z,21.24
2018-12-05T01:46:34.987Z,21.21
2018-12-05T01:49:01.647Z,21.21
2018-12-05T01:51:28.377Z,21.22
2018-12-05T01:53:55.028Z,21.23
2018-12-05T01:56:21.736Z,21.21
2018-12-05T01:58:48.383Z,21.24
2018-12-05T02:01:15.035Z,21.24
2018-12-05T02:03:41.671Z,21.26
2018-12-05T02:06:08.361Z,21.24
2018-12-05T02:08:34.999Z,21.26
2018-12-05T02:11:01.690Z,21.23
2018-12-05T02:13:28.324Z,21.24
2018-12-05T02:15:54.969Z,21.28
2018-12-05T02:18:21.631Z,21.27
2018-12-05T02:20:48.315Z,21.27
2018-12-05T02:23:14.959Z,21.26
2018-12-05T02:25:41.656Z,21.26
2018-12-05T02:28:08.318Z,21.27
2018-12-05T02:30:34.966Z,21.28
2018-12-05T02:33:01.665Z,21.30
2018-12-05T02:35:28.303Z,21.31
2018-12-05T02:37:54.998Z,21.34
2018-12-05T02:40:21.700Z,21.31
2018-12-05T02:42:48.386Z,21.35
2018-12-05T02:45:15.055Z,21.33
2018-12-05T02:47:41.698Z,21.34
2018-12-05T02:50:08.352Z,21.33
2018-12-05T02:52:35.006Z,21.38
2018-12-05T02:55:01.660Z,21.37
2018-12-05T02:57:28.423Z,21.40
2018-12-05T02:59:55.063Z,21.40
2018-12-05T03:02:21.762Z,21.40
2018-12-05T03:04:48.470Z,21.38
2018-12-05T03:07:15.107Z,21.40
2018-12-05T03:09:41.765Z,21.42
2018-12-05T03:12:08.461Z,21.42
2018-12-05T03:14:35.104Z,21.43
2018-12-05T03:17:01.799Z,21.41
2018-12-05T03:19:28.451Z,21.45
2018-12-05T03:21:55.166Z,21.45
2018-12-05T03:24:21.817Z,21.46
2018-12-05T03:26:48.458Z,21.41
2018-12-05T03:29:15.147Z,21.43
2018-12-05T03:31:42.112Z,21.42
2018-12-05T03:34:08.758Z,21.45
2018-12-05T03:36:35.451Z,21.44
2018-12-05T03:39:02.100Z,21.46
2018-12-05T03:41:28.792Z,21.44
2018-12-05T03:43:55.440Z,21.48
2018-12-05T03:46:22.137Z,21.45
2018-12-05T03:48:48.773Z,21.46
2018-12-05T03:51:15.424Z,21.43
2018-12-05T03:53:42.069Z,21.46
2018-12-05T03:56:08.813Z,21.45
2018-12-05T03:58:35.493Z,21.46
2018-12-05T04:01:02.138Z,21.46
2018-12-05T04:03:28.803Z,21.44
2018-12-05T04:05:55.466Z,21.44
2018-12-05T04:08:22.129Z,21.48
2018-12-05T04:10:48.790Z,21.45
2018-12-05T04:13:15.435Z,21.52
2018-12-05T04:15:42.079Z,22.43
2018-12-05T04:18:08.743Z,23.08
2018-12-05T04:20:35.396Z,22.85
2018-12-05T04:23:02.036Z,23.04
2018-12-05T04:25:28.679Z,22.91
2018-12-05T04:27:55.333Z,22.84
2018-12-05T04:30:21.980Z,22.88
2018-12-05T04:32:48.639Z,23.45
2018-12-05T04:35:15.288Z,23.78
2018-12-05T04:37:41.950Z,23.15
2018-12-05T04:40:08.606Z,22.67
2018-12-05T04:42:35.247Z,22.46
2018-12-05T04:45:01.898Z,22.26
2018-12-05T04:47:28.636Z,22.15
2018-12-05T04:49:55.289Z,22.02
2018-12-05T04:52:21.930Z,21.98
2018-12-05T04:54:48.582Z,22.89
2018-12-05T04:57:15.227Z,21.84
2018-12-05T04:59:41.861Z,21.93
2018-12-05T05:02:08.518Z,21.96
2018-12-05T05:04:35.182Z,22.00
2018-12-05T05:07:01.817Z,21.96
2018-12-05T05:09:28.450Z,21.94
2018-12-05T05:11:55.097Z,21.87
2018-12-05T05:14:24.379Z,21.84
2018-12-05T05:16:51.053Z,21.87
2018-12-05T05:19:17.691Z,21.76
2018-12-05T05:21:44.345Z,21.94
2018-12-05T05:24:10.992Z,22.16
2018-12-05T05:26:37.632Z,22.09
2018-12-05T05:29:04.282Z,21.98
2018-12-05T05:31:30.914Z,22.09
2018-12-05T05:33:57.565Z,22.17
2018-12-05T05:36:24.203Z,22.07
2018-12-05T05:38:50.865Z,22.32
2018-12-05T05:41:17.505Z,22.14
2018-12-05T05:43:44.160Z,22.36
2018-12-05T05:46:10.803Z,22.25
2018-12-05T05:48:37.459Z,22.36
2018-12-05T05:51:04.100Z,22.52
2018-12-05T05:53:30.748Z,22.51
2018-12-05T05:55:57.386Z,22.84
2018-12-05T05:58:24.043Z,23.20
2018-12-05T06:00:50.698Z,23.37
2018-12-05T06:03:17.343Z,23.43
2018-12-05T06:05:44.069Z,23.21
2018-12-05T06:08:10.696Z,23.13
2018-12-05T06:10:37.333Z,23.19
2018-12-05T06:13:04.022Z,23.17
2018-12-05T06:15:30.668Z,23.30
2018-12-05T06:17:57.315Z,23.05
2018-12-05T06:20:23.965Z,23.25
2018-12-05T06:22:50.624Z,23.30
2018-12-05T06:25:17.284Z,23.38
2018-12-05T06:27:43.920Z,23.34
2018-12-05T06:30:10.579Z,23.26
2018-12-05T06:32:37.230Z,23.35
2018-12-05T06:35:03.874Z,23.45
2018-12-05T06:37:30.522Z,23.43
2018-12-05T06:39:57.160Z,23.57
2018-12-05T06:42:23.871Z,23.53
2018-12-05T06:44:50.515Z,23.48
2018-12-05T06:47:17.154Z,23.49
2018-12-05T06:49:43.798Z,23.45
2018-12-05T06:52:10.433Z,23.51
2018-12-05T06:54:37.141Z,23.39
2018-12-05T06:57:03.796Z,23.41
2018-12-05T06:59:30.439Z,23.47
2018-12-05T07:01:57.091Z,23.58
2018-12-05T07:04:23.767Z,23.47
2018-12-05T07:06:50.407Z,23.85
2018-12-05T07:09:17.064Z,23.50
2018-12-05T07:11:43.752Z,23.62
2018-12-05T07:14:10.446Z,23.48
2018-12-05T07:16:37.101Z,23.48
2018-12-05T07:19:03.742Z,23.42
2018-12-05T07:21:30.396Z,23.68
2018-12-05T07:23:57.030Z,23.59
2018-12-05T07:26:23.683Z,23.53
2018-12-05T07:28:50.329Z,23.50
2018-12-05T07:31:17.136Z,23.47
2018-12-05T07:33:43.782Z,23.43
2018-12-05T07:36:10.427Z,23.39
2018-12-05T07:38:37.080Z,23.20
2018-12-05T07:41:03.725Z,23.30
2018-12-05T07:43:31.378Z,23.31
2018-12-05T07:45:58.058Z,23.32
2018-12-05T07:48:24.712Z,23.00
2018-12-05T07:50:51.373Z,22.94
2018-12-05T07:53:18.525Z,22.85
2018-12-05T07:55:47.853Z,22.86
2018-12-05T07:58:14.588Z,22.81
2018-12-05T08:00:41.308Z,22.89
2018-12-05T08:03:07.977Z,22.76
2018-12-05T08:05:34.793Z,22.70
2018-12-05T08:08:03.004Z,22.70
2018-12-05T08:10:28.677Z,22.58
2018-12-05T08:12:55.427Z,22.59
2018-12-05T08:15:22.108Z,22.53
2018-12-05T08:17:49.846Z,22.63
2018-12-05T08:20:16.659Z,22.39
2018-12-05T08:22:43.388Z,22.06
2018-12-05T08:25:10.123Z,22.41
2018-12-05T08:27:36.885Z,22.00
2018-12-05T08:30:04.024Z,22.31
2018-12-05T08:32:30.775Z,22.01
2018-12-05T08:34:57.435Z,22.26
2018-12-05T08:37:24.164Z,22.24
2018-12-05T08:39:51.209Z,21.84
2018-12-05T08:42:18.349Z,21.91
2018-12-05T08:44:45.080Z,22.07
2018-12-05T08:47:12.771Z,21.60
2018-12-05T08:49:39.592Z,21.71
2018-12-05T08:52:07.380Z,21.92
2018-12-05T08:54:36.867Z,21.94
2018-12-05T08:57:03.557Z,21.91
2018-12-05T08:59:32.960Z,21.74
2018-12-05T09:01:59.712Z,21.67
2018-12-05T09:04:26.389Z,21.88
2018-12-05T09:06:55.234Z,21.93
2018-12-05T09:09:21.941Z,21.66
2018-12-05T09:11:48.592Z,22.03
2018-12-05T09:14:17.324Z,22.00
2018-12-05T09:16:44.039Z,21.71
2018-12-05T09:19:10.806Z,21.79
2018-12-05T09:21:39.647Z,21.90
2018-12-05T09:24:06.303Z,21.66
2018-12-05T09:26:32.946Z,21.71
2018-12-05T09:28:59.602Z,21.87
2018-12-05T09:31:26.926Z,21.97
2018-12-05T09:33:53.697Z,21.75
2018-12-05T09:36:20.342Z,21.75
2018-12-05T09:38:47.081Z,21.84
2018-12-05T09:41:13.734Z,21.82
2018-12-05T09:43:40.452Z,21.66
2018-12-05T09:46:07.111Z,21.82
2018-12-05T09:48:33.835Z,21.70
2018-12-05T09:51:00.562Z,21.71
2018-12-05T09:53:27.326Z,21.87
2018-12-05T09:55:54.080Z,21.47
2018-12-05T09:58:20.796Z,21.67
2018-12-05T10:00:48.559Z,21.04
2018-12-05T10:03:15.297Z,21.58
2018-12-05T10:05:42.070Z,21.96
2018-12-05T10:08:08.732Z,22.15
2018-12-05T10:10:36.452Z,22.14
2018-12-05T10:13:03.086Z,22.03
2018-12-05T10:15:29.805Z,21.97
2018-12-05T10:17:56.480Z,22.17
2018-12-05T10:20:23.134Z,21.98
2018-12-05T10:22:49.816Z,21.89
2018-12-05T10:25:16.428Z,21.97
2018-12-05T10:27:43.070Z,21.97
2018-12-05T10:30:09.721Z,22.09
2018-12-05T10:32:36.368Z,22.08
2018-12-05T10:35:03.014Z,22.08
2018-12-05T10:37:29.679Z,22.08
2018-12-05T10:39:56.379Z,21.98
2018-12-05T10:42:23.059Z,21.84
2018-12-05T10:44:49.761Z,21.81
2018-12-05T10:47:16.536Z,21.71
2018-12-05T10:49:43.194Z,21.60
2018-12-05T10:52:09.844Z,21.62
2018-12-05T10:54:36.531Z,21.80
2018-12-05T10:57:03.171Z,21.72
2018-12-05T10:59:29.826Z,21.56
2018-12-05T11:01:56.496Z,21.70
2018-12-05T11:04:23.151Z,21.62
2018-12-05T11:06:50.079Z,21.48
2018-12-05T11:09:16.734Z,21.67
2018-12-05T11:11:43.490Z,21.47
2018-12-05T11:14:10.140Z,21.27
2018-12-05T11:16:36.791Z,21.18
2018-12-05T11:19:03.461Z,21.21
2018-12-05T11:21:30.125Z,21.65
2018-12-05T11:23:57.006Z,21.63
2018-12-05T11:26:23.745Z,21.53
2018-12-05T11:28:50.995Z,21.68
2018-12-05T11:31:18.138Z,21.67
2018-12-05T11:33:44.839Z,21.95
2018-12-05T11:36:11.615Z,21.87
2018-12-05T11:38:38.463Z,22.11
2018-12-05T11:41:07.872Z,21.84
2018-12-05T11:43:34.610Z,21.93
2018-12-05T11:46:01.436Z,21.56
2018-12-05T11:48:28.497Z,21.73
2018-12-05T11:50:55.325Z,21.99
2018-12-05T11:53:22.031Z,22.07
2018-12-05T11:55:48.791Z,22.04
2018-12-05T11:58:15.454Z,22.13
2018-12-05T12:00:42.291Z,22.33
2018-12-05T12:03:09.451Z,22.36
2018-12-05T12:05:36.296Z,21.95
2018-12-05T12:08:03.443Z,22.43
2018-12-05T12:10:30.184Z,21.76
2018-12-05T12:12:57.965Z,22.08
2018-12-05T12:15:24.779Z,22.18
2018-12-05T12:17:51.885Z,22.00
2018-12-05T12:20:18.674Z,22.14
2018-12-05T12:22:46.545Z,21.94
2018-12-05T12:25:13.335Z,21.59
2018-12-05T12:27:40.062Z,21.94
2018-12-05T12:30:06.862Z,22.00
2018-12-05T12:32:36.795Z,21.94
2018-12-05T12:35:03.627Z,22.03
2018-12-05T12:37:30.340Z,22.14
2018-12-05T12:39:57.464Z,22.01
2018-12-05T12:42:24.491Z,22.26
2018-12-05T12:44:51.221Z,21.98
2018-12-05T12:47:18.030Z,22.19
2018-12-05T12:49:45.903Z,22.18
2018-12-05T12:52:13.019Z,22.04
2018-12-05T12:54:40.100Z,22.09
2018-12-05T12:57:08.906Z,21.84
2018-12-05T12:59:36.131Z,22.03
2018-12-05T13:02:03.239Z,22.01
2018-12-05T13:04:30.033Z,21.92
2018-12-05T13:06:57.231Z,22.21
2018-12-05T13:09:24.025Z,22.18
2018-12-05T13:11:53.706Z,22.25
2018-12-05T13:14:24.931Z,22.37
2018-12-05T13:16:52.679Z,22.49
2018-12-05T13:19:20.612Z,22.40
2018-12-05T13:21:48.323Z,22.44
2018-12-05T13:24:15.039Z,22.52
2018-12-05T13:26:41.745Z,22.28
2018-12-05T13:29:08.448Z,22.34
2018-12-05T13:31:35.220Z,22.23
2018-12-05T13:34:04.860Z,22.41
2018-12-05T13:36:31.684Z,22.07
2018-12-05T13:38:58.420Z,22.11
2018-12-05T13:41:25.160Z,22.24
2018-12-05T13:43:51.909Z,21.96
2018-12-05T13:46:18.579Z,22.09
2018-12-05T13:48:45.236Z,22.28
2018-12-05T13:51:11.900Z,22.29
2018-12-05T13:53:38.550Z,22.28
2018-12-05T13:56:05.241Z,22.42
2018-12-05T13:58:31.941Z,22.42
2018-12-05T14:00:58.591Z,22.87
2018-12-05T14:03:25.245Z,23.12
2018-12-05T14:05:51.895Z,23.07
2018-12-05T14:08:18.541Z,22.74
2018-12-05T14:10:45.312Z,22.79
2018-12-05T14:13:11.956Z,22.50
2018-12-05T14:15:38.650Z,22.37
2018-12-05T14:18:05.313Z,22.09
2018-12-05T14:20:31.957Z,22.31
2018-12-05T14:22:58.622Z,22.11
2018-12-05T14:25:25.282Z,21.91
2018-12-05T14:27:51.980Z,21.68
2018-12-05T14:30:18.946Z,22.01
2018-12-05T14:32:46.693Z,21.73
2018-12-05T14:35:13.343Z,21.86
2018-12-05T14:37:42.382Z,22.01
2018-12-05T14:40:09.031Z,21.74
2018-12-05T14:42:35.731Z,21.79
2018-12-05T14:45:02.384Z,21.91
2018-12-05T14:47:29.108Z,21.75
2018-12-05T14:49:55.773Z,21.89
2018-12-05T14:52:22.662Z,21.61
2018-12-05T14:54:49.319Z,21.53
2018-12-05T14:57:15.966Z,21.58
2018-12-05T14:59:42.621Z,21.23
2018-12-05T15:02:09.307Z,21.16
2018-12-05T15:04:35.949Z,21.42
2018-12-05T15:07:02.608Z,21.25
2018-12-05T15:09:29.274Z,21.12
2018-12-05T15:11:55.977Z,20.98
2018-12-05T15:14:22.614Z,21.08
2018-12-05T15:16:49.261Z,21.24
2018-12-05T15:19:15.922Z,21.02
2018-12-05T15:21:42.562Z,21.11
2018-12-05T15:24:09.265Z,21.14
2018-12-05T15:26:35.985Z,21.09
2018-12-05T15:29:02.724Z,21.03
2018-12-05T15:31:29.431Z,20.93
2018-12-05T15:33:56.111Z,20.70
2018-12-05T15:36:33.038Z,20.79
2018-12-05T15:38:59.835Z,20.80
2018-12-05T15:41:26.499Z,20.77
2018-12-05T15:43:53.179Z,20.71
2018-12-05T15:46:19.943Z,20.57
2018-12-05T15:48:46.635Z,20.56
2018-12-05T15:51:13.439Z,20.48
2018-12-05T15:53:40.489Z,20.43
2018-12-05T15:56:07.138Z,20.34
2018-12-05T15:58:33.832Z,20.33
2018-12-05T16:01:00.617Z,20.28
2018-12-05T16:03:27.195Z,20.21
2018-12-05T16:05:53.833Z,20.15
2018-12-05T16:08:20.685Z,20.04
2018-12-05T16:10:47.311Z,19.96
2018-12-05T16:13:13.954Z,19.88
2018-12-05T16:15:40.597Z,19.85
2018-12-05T16:18:07.250Z,19.83
2018-12-05T16:20:33.902Z,19.76
2018-12-05T16:23:00.598Z,19.73
2018-12-05T16:25:27.242Z,19.70
2018-12-05T16:27:53.904Z,19.45
2018-12-05T16:30:20.555Z,19.48
2018-12-05T16:32:47.286Z,19.46
2018-12-05T16:35:13.932Z,19.44
2018-12-05T16:37:40.592Z,19.45
2018-12-05T16:40:07.303Z,19.36
2018-12-05T16:42:33.966Z,19.31
2018-12-05T16:45:00.620Z,19.30
2018-12-05T16:47:27.269Z,19.22
2018-12-05T16:49:53.979Z,19.16
2018-12-05T16:52:20.616Z,19.09
2018-12-05T16:54:47.253Z,19.14
2018-12-05T16:57:13.966Z,19.03
2018-12-05T16:59:40.603Z,19.07
2018-12-05T17:02:07.312Z,19.01
2018-12-05T17:04:33.968Z,19.02
2018-12-05T17:07:00.649Z,18.96
2018-12-05T17:09:27.298Z,18.97
2018-12-05T17:11:54.011Z,18.86
2018-12-05T17:14:20.656Z,18.86
2018-12-05T17:16:47.306Z,18.84
2018-12-05T17:19:14.005Z,18.84
2018-12-05T17:21:40.650Z,18.53
2018-12-05T17:24:07.300Z,18.72
2018-12-05T17:26:33.953Z,18.51
2018-12-05T17:29:00.602Z,18.71
2018-12-05T17:31:27.303Z,18.56
2018-12-05T17:33:54.000Z,18.61
2018-12-05T17:36:20.634Z,18.51
2018-12-05T17:38:47.289Z,18.55
2018-12-05T17:41:13.955Z,18.50
2018-12-05T17:43:40.657Z,18.50
2018-12-05T17:46:07.305Z,18.45
2018-12-05T17:48:33.954Z,18.44
2018-12-05T17:51:00.610Z,18.42
2018-12-05T17:53:27.245Z,18.44
2018-12-05T17:55:53.892Z,18.37
2018-12-05T17:58:20.673Z,18.40
2018-12-05T18:00:47.364Z,18.27
2018-12-05T18:03:14.001Z,18.37
2018-12-05T18:05:40.711Z,18.23
2018-12-05T18:08:07.386Z,18.27
2018-12-05T18:10:34.183Z,18.23
2018-12-05T18:13:00.858Z,18.22
2018-12-05T18:15:27.524Z,18.15
2018-12-05T18:17:54.163Z,18.15
2018-12-05T18:20:20.879Z,18.09
2018-12-05T18:22:47.544Z,18.11
2018-12-05T18:25:14.201Z,18.05
2018-12-05T18:27:40.854Z,18.03
2018-12-05T18:30:07.496Z,18.00
2018-12-05T18:32:34.164Z,17.95
2018-12-05T18:35:00.852Z,17.92
2018-12-05T18:37:27.506Z,17.94
2018-12-05T18:39:54.150Z,17.91
2018-12-05T18:42:20.794Z,17.90
2018-12-05T18:44:47.451Z,17.88
2018-12-05T18:47:14.188Z,17.84
2018-12-05T18:49:40.837Z,17.82
2018-12-05T18:52:07.475Z,17.80
2018-12-05T18:54:34.173Z,17.81
2018-12-05T18:57:00.830Z,17.71
2018-12-05T18:59:27.475Z,17.73
2018-12-05T19:01:54.171Z,17.70
2018-12-05T19:04:20.822Z,17.76
2018-12-05T19:06:47.551Z,17.69
2018-12-05T19:09:14.238Z,17.78
2018-12-05T19:11:40.884Z,17.65
2018-12-05T19:14:07.535Z,17.69
2018-12-05T19:16:34.258Z,17.62
2018-12-05T19:19:00.894Z,17.65
2018-12-05T19:21:29.572Z,17.56
2018-12-05T19:23:54.218Z,17.62
2018-12-05T19:26:20.866Z,17.56
2018-12-05T19:28:47.536Z,17.58
2018-12-05T19:31:19.385Z,17.53
2018-12-05T19:33:40.838Z,17.58
2018-12-05T19:36:07.486Z,17.53
2018-12-05T19:38:34.190Z,17.53
2018-12-05T19:41:00.837Z,17.45
2018-12-05T19:43:27.495Z,17.51
2018-12-05T19:45:54.135Z,17.45
2018-12-05T19:48:20.882Z,17.47
2018-12-05T19:50:47.537Z,17.45
2018-12-05T19:53:14.227Z,17.45
2018-12-05T19:55:40.927Z,17.47
2018-12-05T19:58:07.579Z,17.45
2018-12-05T20:00:34.213Z,17.38
2018-12-05T20:03:00.903Z,17.42
2018-12-05T20:05:27.541Z,17.37
2018-12-05T20:07:54.186Z,17.42
2018-12-05T20:10:20.842Z,17.38
2018-12-05T20:12:47.613Z,17.32
2018-12-05T20:15:14.265Z,17.36
2018-12-05T20:17:40.972Z,17.30
2018-12-05T20:20:07.626Z,17.25
2018-12-05T20:22:34.280Z,17.28
2018-12-05T20:25:00.927Z,17.25
2018-12-05T20:27:27.564Z,17.30
2018-12-05T20:29:54.262Z,17.25
2018-12-05T20:32:20.906Z,17.28
2018-12-05T20:34:47.608Z,17.25
2018-12-05T20:37:14.319Z,17.24
2018-12-05T20:39:41.026Z,17.21
2018-12-05T20:42:07.687Z,17.19
2018-12-05T20:44:34.440Z,17.22
2018-12-05T20:47:01.094Z,17.21
2018-12-05T20:49:27.750Z,17.22
2018-12-05T20:51:54.395Z,17.15
2018-12-05T20:54:21.052Z,17.19
2018-12-05T20:56:47.686Z,17.13
2018-12-05T20:59:14.384Z,17.15
2018-12-05T21:01:41.037Z,17.13
2018-12-05T21:04:07.688Z,17.15
2018-12-05T21:06:34.373Z,17.14
2018-12-05T21:09:01.027Z,17.16
2018-12-05T21:11:27.675Z,17.14
2018-12-05T21:13:54.325Z,17.15
2018-12-05T21:16:21.022Z,17.00
2018-12-05T21:18:47.671Z,17.16
2018-12-05T21:21:14.367Z,17.08
2018-12-05T21:23:41.066Z,17.10
2018-12-05T21:26:10.408Z,17.05
2018-12-05T21:28:37.059Z,17.09
2018-12-05T21:31:03.719Z,17.06
2018-12-05T21:33:30.410Z,17.07
2018-12-05T21:35:57.098Z,17.03
2018-12-05T21:38:23.786Z,17.09
2018-12-05T21:40:50.424Z,17.04
2018-12-05T21:43:17.078Z,17.07
2018-12-05T21:45:43.717Z,17.01
2018-12-05T21:48:10.414Z,17.02
2018-12-05T21:50:37.050Z,17.01
2018-12-05T21:53:03.745Z,17.04
2018-12-05T21:55:30.398Z,16.99
2018-12-05T21:57:57.700Z,16.97
2018-12-05T22:00:23.693Z,16.90
2018-12-05T22:02:50.337Z,16.95
2018-12-05T22:05:16.982Z,17.16
2018-12-05T22:07:43.634Z,17.30
2018-12-05T22:10:10.326Z,17.24
2018-12-05T22:12:36.965Z,17.07
2018-12-05T22:15:03.618Z,17.05
2018-12-05T22:17:30.263Z,17.07
2018-12-05T22:19:56.958Z,16.97
2018-12-05T22:22:23.597Z,16.95
2018-12-05T22:24:50.315Z,16.96
2018-12-05T22:27:16.948Z,16.94
2018-12-05T22:29:43.596Z,16.91
2018-12-05T22:32:10.285Z,16.92
2018-12-05T22:34:36.925Z,16.90
2018-12-05T22:37:03.577Z,16.92
2018-12-05T22:39:30.233Z,16.92
2018-12-05T22:41:56.938Z,16.93
2018-12-05T22:44:23.581Z,16.95
2018-12-05T22:46:50.221Z,16.94
2018-12-05T22:49:16.998Z,16.91
2018-12-05T22:51:43.559Z,16.91
2018-12-05T22:54:10.207Z,16.90
2018-12-05T22:56:36.969Z,16.82
2018-12-05T22:59:03.626Z,16.91
2018-12-05T23:01:30.265Z,16.88
2018-12-05T23:03:56.908Z,16.83
2018-12-05T23:06:23.612Z,16.82
2018-12-05T23:08:50.244Z,16.83
2018-12-05T23:11:16.885Z,16.87
2018-12-05T23:13:43.541Z,16.80
2018-12-05T23:16:10.179Z,16.80
2018-12-05T23:18:36.872Z,16.91
2018-12-05T23:21:03.510Z,16.89
2018-12-05T23:23:30.167Z,16.89
2018-12-05T23:25:56.817Z,16.90
2018-12-05T23:28:23.460Z,16.85
2018-12-05T23:30:50.108Z,16.82
2018-12-05T23:33:16.774Z,16.81
2018-12-05T23:35:43.408Z,16.78
2018-12-05T23:38:10.036Z,16.81
2018-12-05T23:40:36.706Z,16.77
2018-12-05T23:43:03.337Z,16.77
2018-12-05T23:45:29.992Z,16.76
2018-12-05T23:47:56.654Z,16.74
2018-12-05T23:50:23.310Z,16.73
2018-12-05T23:52:50.049Z,16.82
2018-12-05T23:55:16.693Z,16.74
2018-12-05T23:57:43.330Z,16.73
